Time;durP1;ratioP1;P1;durP2;ratioP2;P2;SDS_P1;SDS_P2;PMS_P1;PMS_P2;Temp;Humidity;BMP_temperature;BMP_pressure;BME280_temperature;BME280_humidity;BME280_pressure;Samples;Min_cycle;Max_cycle;Signal;HPM_P1;HPM_P2
2022/04/07 00:02:21;;;;;;;;;;;;;;;8.74;100.00;97654.81;5071924;28;19924;-77
2022/04/07 00:04:47;;;;;;;;;;;;;;;8.75;100.00;97648.69;5071656;28;19917;-77
2022/04/07 00:07:13;;;;;;;;;;;;;;;8.77;100.00;97632.03;5088223;28;19924;-77
2022/04/07 00:09:38;;;;;;;;;;;;;;;8.81;100.00;97627.66;5072117;28;20379;-78
2022/04/07 00:12:03;;;;;;;;;;;;;;;8.83;100.00;97619.78;5060997;28;20017;-77
2022/04/07 00:14:30;;;;;;;;;;;;;;;8.82;100.00;97626.75;5064887;28;19920;-78
2022/04/07 00:16:55;;;;;;;;;;;;;;;8.82;100.00;97626.75;5069553;28;19916;-78
2022/04/07 00:19:22;;;;;;;;;;;;;;;8.82;100.00;97616.25;5088763;28;19927;-78
2022/04/07 00:21:47;;;;;;;;;;;;;;;8.84;100.00;97616.25;5053550;28;20380;-78
2022/04/07 00:24:13;;;;;;;;;;;;;;;8.86;100.00;97607.50;5051388;28;19917;-78
2022/04/07 00:26:38;;;;;;;;;;;;;;;8.90;100.00;97608.31;5054265;28;19966;-77
2022/04/07 00:29:04;;;;;;;;;;;;;;;8.88;100.00;97604.84;5071477;28;19981;-78
2022/04/07 00:31:38;;;;;;;;;;;;;;;8.89;100.00;97612.72;5062806;28;19921;-77
2022/04/07 00:34:06;;;;;;;;;;;;;;;8.89;100.00;97610.09;5070702;28;19944;-77
2022/04/07 00:36:31;;;;;;;;;;;;;;;8.92;100.00;97606.56;5071044;28;19966;-78
2022/04/07 00:38:56;;;;;;;;;;;;;;;8.93;100.00;97611.81;5084951;28;19921;-77
2022/04/07 00:41:22;;;;;;;;;;;;;;;8.91;100.00;97603.06;5066912;28;19928;-77
2022/04/07 00:43:53;;;;;;;;;;;;;;;8.94;100.00;97603.03;5064188;28;19925;-77
2022/04/07 00:46:19;;;;;;;;;;;;;;;8.95;100.00;97607.41;5065147;28;19920;-78
2022/04/07 00:48:44;;;;;;;;;;;;;;;8.93;100.00;97611.81;5071413;28;19927;-77
2022/04/07 00:51:10;;;;;;;;;;;;;;;8.87;100.00;97606.63;5071694;28;19917;-76
2022/04/07 00:53:38;;;;;;;;;;;;;;;8.82;100.00;97592.66;5100801;28;19970;-76
2022/04/07 00:56:06;;;;;;;;;;;;;;;8.79;100.00;97597.94;5087594;28;19921;-76
2022/04/07 00:58:32;;;;;;;;;;;;;;;8.81;100.00;97596.19;5071414;28;19924;-77
2022/04/07 01:00:57;;;;;;;;;;;;;;;8.79;100.00;97584.81;5064869;28;20010;-78
2022/04/07 01:03:25;;;;;;;;;;;;;;;8.76;100.00;97582.22;5075061;28;19921;-77
2022/04/07 01:05:50;;;;;;;;;;;;;;;8.72;100.00;97570.88;5074772;28;20372;-77
2022/04/07 01:08:16;;;;;;;;;;;;;;;8.73;100.00;97569.13;5056369;28;20015;-77
2022/04/07 01:10:47;;;;;;;;;;;;;;;8.68;100.00;97555.19;5065679;28;20289;-78
2022/04/07 01:13:15;;;;;;;;;;;;;;;8.62;100.00;97535.13;5092575;28;19921;-77
2022/04/07 01:15:40;;;;;;;;;;;;;;;8.57;100.00;97519.44;5054195;28;20434;-77
2022/04/07 01:18:06;;;;;;;;;;;;;;;8.56;100.00;97501.97;5064215;28;19924;-76
2022/04/07 01:20:31;;;;;;;;;;;;;;;8.54;100.00;97489.75;5066129;28;19962;-76
2022/04/07 01:22:59;;;;;;;;;;;;;;;8.48;100.00;97469.69;5072310;28;20035;-76
2022/04/07 01:25:26;;;;;;;;;;;;;;;8.46;100.00;97445.25;5091187;28;19928;-77
2022/04/07 01:27:53;;;;;;;;;;;;;;;8.49;100.00;97424.25;5074108;28;19917;-77
2022/04/07 01:30:18;;;;;;;;;;;;;;;8.50;100.00;97411.97;5067698;28;20399;-77
2022/04/07 01:32:47;;;;;;;;;;;;;;;8.50;100.00;97386.66;5071074;28;19956;-76
2022/04/07 01:35:13;;;;;;;;;;;;;;;8.56;100.00;97359.47;5057219;28;20399;-77
2022/04/07 01:37:39;;;;;;;;;;;;;;;8.57;100.00;97351.59;5055463;28;19921;-76
2022/04/07 01:40:09;;;;;;;;;;;;;;;8.60;100.00;97353.31;5053736;28;20012;-77
2022/04/07 01:42:36;;;;;;;;;;;;;;;8.60;100.00;97353.31;5058292;28;19916;-77
2022/04/07 01:45:03;;;;;;;;;;;;;;;8.65;100.00;97348.00;5069806;28;20257;-77
2022/04/07 01:47:29;;;;;;;;;;;;;;;8.61;100.00;97337.56;5061277;28;19970;-77
2022/04/07 01:50:02;;;;;;;;;;;;;;;8.59;100.00;97336.72;5054188;28;19920;-76
2022/04/07 01:52:32;;;;;;;;;;;;;;;8.57;100.00;97322.75;5086989;28;19966;-76
2022/04/07 01:54:59;;;;;;;;;;;;;;;8.52;100.00;97321.09;5085821;28;19948;-77
2022/04/07 01:57:26;;;;;;;;;;;;;;;8.46;100.00;97308.03;5053350;28;19956;-78
2022/04/07 01:59:52;;;;;;;;;;;;;;;8.49;100.00;97292.28;5055755;28;19917;-78
2022/04/07 02:02:19;;;;;;;;;;;;;;;8.50;100.00;97283.50;5073644;28;19999;-76
2022/04/07 02:04:57;;;;;;;;;;;;;;;8.55;100.00;97311.41;5090001;28;19921;-75
2022/04/07 02:07:27;;;;;;;;;;;;;;;8.58;100.00;97285.16;5054655;28;19925;-77
2022/04/07 02:09:53;;;;;;;;;;;;;;;8.62;100.00;97285.97;5054977;28;20405;-78
2022/04/07 02:12:20;;;;;;;;;;;;;;;8.69;100.00;97282.38;5053571;28;19928;-77
2022/04/07 02:14:53;;;;;;;;;;;;;;;8.70;100.00;97301.59;5053621;28;19921;-78
2022/04/07 02:17:22;;;;;;;;;;;;;;;8.71;100.00;97298.09;5063892;28;19947;-78
2022/04/07 02:19:49;;;;;;;;;;;;;;;8.73;100.00;97307.69;5073466;28;19928;-78
2022/04/07 02:22:14;;;;;;;;;;;;;;;8.76;100.00;97310.28;5069529;28;20016;-78
2022/04/07 02:24:40;;;;;;;;;;;;;;;8.78;100.00;97318.97;5088335;28;19929;-79
2022/04/07 02:27:06;;;;;;;;;;;;;;;8.79;100.00;97332.97;5059334;28;19921;-77
2022/04/07 02:29:31;;;;;;;;;;;;;;;8.82;100.00;97338.16;5056006;28;19920;-78
2022/04/07 02:31:56;;;;;;;;;;;;;;;8.84;100.00;97335.53;5073163;28;19920;-78
2022/04/07 02:34:28;;;;;;;;;;;;;;;8.83;100.00;97363.53;5102305;28;19924;-78
2022/04/07 02:36:53;;;;;;;;;;;;;;;8.85;100.00;97369.59;5070112;28;19913;-78
2022/04/07 02:39:19;;;;;;;;;;;;;;;8.86;100.00;97384.47;5053296;28;19917;-78
2022/04/07 02:41:44;;;;;;;;;;;;;;;8.80;100.00;97379.31;5053260;28;19917;-78
2022/04/07 02:44:13;;;;;;;;;;;;;;;8.87;100.00;97378.34;5070657;28;20289;-77
2022/04/07 02:46:38;;;;;;;;;;;;;;;8.82;100.00;97382.75;5053876;28;19916;-78
2022/04/07 02:49:04;;;;;;;;;;;;;;;8.83;100.00;97383.66;5052561;28;20535;-77
2022/04/07 02:51:31;;;;;;;;;;;;;;;8.88;100.00;97374.81;5070499;28;19916;-79
2022/04/07 02:53:59;;;;;;;;;;;;;;;8.88;100.00;97387.06;5106420;28;19927;-77
2022/04/07 02:56:27;;;;;;;;;;;;;;;8.85;100.00;97382.72;5071629;28;19923;-77
2022/04/07 02:58:52;;;;;;;;;;;;;;;8.85;100.00;97382.72;5059750;28;19977;-78
2022/04/07 03:01:18;;;;;;;;;;;;;;;8.83;100.00;97389.75;5089654;28;20023;-78
2022/04/07 03:03:45;;;;;;;;;;;;;;;8.83;100.00;97389.75;5072763;28;20069;-77
2022/04/07 03:06:12;;;;;;;;;;;;;;;8.82;100.00;97380.13;5072682;28;19927;-78
2022/04/07 03:08:39;;;;;;;;;;;;;;;8.80;100.00;97368.81;5054114;28;20314;-77
2022/04/07 03:11:07;;;;;;;;;;;;;;;8.78;100.00;97366.19;5059807;28;19916;-78
2022/04/07 03:13:38;;;;;;;;;;;;;;;8.76;100.00;97365.38;5071070;28;20466;-79
2022/04/07 03:16:05;;;;;;;;;;;;;;;8.82;100.00;97353.91;5057474;28;19917;-78
2022/04/07 03:18:31;;;;;;;;;;;;;;;8.79;100.00;97362.69;5052778;28;20404;-79
2022/04/07 03:20:57;;;;;;;;;;;;;;;8.78;100.00;97349.59;5052974;28;20015;-78
2022/04/07 03:23:22;;;;;;;;;;;;;;;8.71;100.00;97342.69;5053267;28;19982;-79
2022/04/07 03:25:48;;;;;;;;;;;;;;;8.67;100.00;97335.72;5066589;28;19912;-78
2022/04/07 03:28:13;;;;;;;;;;;;;;;8.63;100.00;97314.78;5071211;28;20378;-77
2022/04/07 03:30:38;;;;;;;;;;;;;;;8.59;100.00;97310.50;5054799;28;19916;-77
2022/04/07 03:33:08;;;;;;;;;;;;;;;8.57;100.00;97295.66;5071441;28;20400;-76
2022/04/07 03:35:33;;;;;;;;;;;;;;;8.52;100.00;97281.75;5104870;28;19920;-77
2022/04/07 03:37:59;;;;;;;;;;;;;;;8.47;100.00;97250.34;5058461;28;19917;-76
2022/04/07 03:40:27;;;;;;;;;;;;;;;8.49;100.00;97252.94;5052008;28;19955;-77
2022/04/07 03:42:53;;;;;;;;;;;;;;;8.50;100.00;97246.78;5084316;28;19928;-77
2022/04/07 03:45:18;;;;;;;;;;;;;;;8.45;100.00;97225.88;5072140;28;20364;-77
2022/04/07 03:47:43;;;;;;;;;;;;;;;8.40;100.00;97199.69;5062617;28;19973;-78
2022/04/07 03:50:09;;;;;;;;;;;;;;;8.39;100.00;97176.13;5064769;28;19924;-78
2022/04/07 03:52:34;;;;;;;;;;;;;;;8.34;100.00;97156.97;5052140;28;20008;-78
2022/04/07 03:55:02;;;;;;;;;;;;;;;8.36;100.00;97123.72;5052668;28;19916;-80
2022/04/07 03:57:28;;;;;;;;;;;;;;;8.35;100.00;97107.16;5076546;28;19925;-80
2022/04/07 03:59:53;;;;;;;;;;;;;;;8.36;100.00;97090.53;5073244;28;19924;-80
2022/04/07 04:02:20;;;;;;;;;;;;;;;8.40;100.00;97059.88;5066882;28;19924;-78
2022/04/07 04:04:46;;;;;;;;;;;;;;;8.43;100.00;97054.59;5054147;28;20012;-79
2022/04/07 04:07:12;;;;;;;;;;;;;;;8.43;100.00;97055.47;5053279;28;20361;-78
2022/04/07 04:09:37;;;;;;;;;;;;;;;8.47;100.00;97051.06;5053966;28;19916;-79
2022/04/07 04:12:03;;;;;;;;;;;;;;;8.47;100.00;97037.97;5053154;28;19931;-77
2022/04/07 04:14:29;;;;;;;;;;;;;;;8.44;100.00;97040.63;5053752;28;20383;-79
2022/04/07 04:16:55;;;;;;;;;;;;;;;8.44;100.00;97030.16;5057606;28;19920;-80
2022/04/07 04:19:21;;;;;;;;;;;;;;;8.45;100.00;97016.13;5073067;28;19917;-80
2022/04/07 04:21:46;;;;;;;;;;;;;;;8.44;100.00;97033.63;5072527;28;19923;-81
2022/04/07 04:24:13;;;;;;;;;;;;;;;8.40;100.00;97017.94;5072577;28;19981;-78
2022/04/07 04:26:39;;;;;;;;;;;;;;;8.42;100.00;97016.16;5073361;28;19916;-79
2022/04/07 04:29:04;;;;;;;;;;;;;;;8.41;100.00;97014.44;5072639;28;20069;-77
2022/04/07 04:31:30;;;;;;;;;;;;;;;8.36;100.00;96998.78;5061505;28;19917;-78
2022/04/07 04:34:00;;;;;;;;;;;;;;;8.33;100.00;96996.22;5099568;28;19921;-80
2022/04/07 04:36:26;;;;;;;;;;;;;;;8.33;100.00;96995.34;5072973;28;19916;-81
2022/04/07 04:38:51;;;;;;;;;;;;;;;8.29;100.00;96988.44;5075093;28;20419;-78
2022/04/07 04:41:17;;;;;;;;;;;;;;;8.22;100.00;96983.28;5077997;28;19921;-80
2022/04/07 04:43:44;;;;;;;;;;;;;;;8.18;100.00;96978.13;5075174;28;20185;-78
2022/04/07 04:46:13;;;;;;;;;;;;;;;8.15;100.00;96958.06;5093172;28;19928;-79
2022/04/07 04:48:38;;;;;;;;;;;;;;;8.12;100.00;96934.53;5090118;28;19920;-80
2022/04/07 04:51:04;;;;;;;;;;;;;;;8.05;100.00;96933.78;5072151;28;19928;-81
2022/04/07 04:53:33;;;;;;;;;;;;;;;8.03;100.00;96906.75;5072919;28;19920;-81
2022/04/07 04:55:59;;;;;;;;;;;;;;;8.02;100.00;96888.44;5064134;28;19921;-80
2022/04/07 04:58:24;;;;;;;;;;;;;;;7.98;100.00;96874.50;5058738;28;20395;-81
2022/04/07 05:00:49;;;;;;;;;;;;;;;7.97;100.00;96856.19;5065380;28;19963;-80
2022/04/07 05:03:22;;;;;;;;;;;;;;;7.91;100.00;96831.00;5098269;28;19967;-82
2022/04/07 05:05:48;;;;;;;;;;;;;;;7.91;100.00;96807.41;5069237;28;20058;-81
2022/04/07 05:08:14;;;;;;;;;;;;;;;7.93;100.00;96789.91;5059451;28;20002;-83
2022/04/07 05:10:40;;;;;;;;;;;;;;;7.91;100.00;96760.28;5078646;28;20379;-82
2022/04/07 05:13:12;;;;;;;;;;;;;;;7.91;100.00;96768.97;5078254;28;20010;-81
2022/04/07 05:15:39;;;;;;;;;;;;;;;7.96;100.00;96760.19;5078585;28;19927;-80
2022/04/07 05:18:05;;;;;;;;;;;;;;;8.00;100.00;96743.50;5096244;28;19916;-79
2022/04/07 05:20:30;;;;;;;;;;;;;;;8.04;100.00;96721.59;5078469;28;19922;-82
2022/04/07 05:22:55;;;;;;;;;;;;;;;8.01;100.00;96705.94;5065003;28;20022;-80
2022/04/07 05:25:21;;;;;;;;;;;;;;;7.99;100.00;96713.81;5074593;28;19928;-83
2022/04/07 05:27:46;;;;;;;;;;;;;;;8.01;100.00;96674.50;5058417;28;19974;-84
2022/04/07 05:30:18;;;;;;;;;;;;;;;8.02;100.00;96671.00;5073215;28;19927;-83
2022/04/07 05:32:44;;;;;;;;;;;;;;;8.00;100.00;96670.16;5096328;28;19951;-81
2022/04/07 05:35:11;;;;;;;;;;;;;;;8.00;100.00;96657.94;5057582;28;19924;-83
2022/04/07 05:37:36;;;;;;;;;;;;;;;8.01;100.00;96658.78;5105722;28;19981;-83
2022/04/07 05:40:02;;;;;;;;;;;;;;;7.99;100.00;96677.16;5057311;28;19960;-84
2022/04/07 05:42:29;;;;;;;;;;;;;;;7.98;100.00;96696.38;5093691;28;19923;-83
2022/04/07 05:44:58;;;;;;;;;;;;;;;6.79;100.00;96758.63;5077613;28;20011;-82
2022/04/07 05:47:50;;;;;;;;;;;;;;;5.55;100.00;96821.84;5068309;28;20356;-83
2022/04/07 05:50:35;;;;;;;;;;;;;;;5.03;100.00;96835.28;5076960;28;19917;-83
2022/04/07 05:53:07;;;;;;;;;;;;;;;4.98;100.00;96834.44;5057782;28;20387;-83
2022/04/07 05:55:33;;;;;;;;;;;;;;;5.00;100.00;96820.53;5057890;28;20122;-81
2022/04/07 05:58:07;;;;;;;;;;;;;;;5.04;100.00;96806.59;5057437;28;19916;-81
2022/04/07 06:00:32;;;;;;;;;;;;;;;5.09;100.00;96800.47;5061980;28;20367;-79
2022/04/07 06:03:02;;;;;;;;;;;;;;;5.17;100.00;96796.06;5084042;28;19926;-79
2022/04/07 06:05:31;;;;;;;;;;;;;;;5.21;100.00;96779.53;5082388;28;19920;-83
2022/04/07 06:08:00;;;;;;;;;;;;;;;5.15;100.00;96779.56;5105838;28;19920;-79
2022/04/07 06:10:25;;;;;;;;;;;;;;;5.24;100.00;96763.00;5095126;28;19927;-83
2022/04/07 06:12:51;;;;;;;;;;;;;;;5.29;100.00;96738.59;5077369;28;20380;-80
2022/04/07 06:15:16;;;;;;;;;;;;;;;5.32;100.00;96714.22;5081188;28;19939;-83
2022/04/07 06:17:44;;;;;;;;;;;;;;;5.37;100.00;96697.63;5097546;28;19951;-83
2022/04/07 06:20:12;;;;;;;;;;;;;;;5.39;100.00;96664.59;5113742;28;19951;-80
2022/04/07 06:22:38;;;;;;;;;;;;;;;5.50;100.00;96627.06;5097248;28;19963;-80
2022/04/07 06:25:04;;;;;;;;;;;;;;;5.51;100.00;96587.91;5087746;28;19920;-80
2022/04/07 06:27:43;;;;;;;;;;;;;;;5.47;100.00;96557.53;5075941;28;19924;-80
2022/04/07 06:30:12;;;;;;;;;;;;;;;5.46;100.00;96557.56;5088875;28;20028;-81
2022/04/07 06:32:39;;;;;;;;;;;;;;;5.46;100.00;96545.34;5056629;28;19974;-81
2022/04/07 06:35:09;;;;;;;;;;;;;;;5.48;100.00;96537.50;5089039;28;20623;-80
2022/04/07 06:37:52;;;;;;;;;;;;;;;5.49;100.00;96524.44;5073683;28;19932;-80
2022/04/07 06:40:20;;;;;;;;;;;;;;;5.46;100.00;96526.25;5085216;28;19965;-78
2022/04/07 06:42:45;;;;;;;;;;;;;;;5.48;100.00;96501.00;5076996;28;19975;-79
2022/04/07 06:45:10;;;;;;;;;;;;;;;5.50;100.00;96504.44;5076235;28;20291;-78
2022/04/07 06:47:36;;;;;;;;;;;;;;;5.48;100.00;96495.78;5075976;28;19920;-79
2022/04/07 06:50:01;;;;;;;;;;;;;;;5.45;100.00;96480.16;5076611;28;19920;-82
2022/04/07 06:52:28;;;;;;;;;;;;;;;5.44;100.00;96494.06;5093775;28;19916;-81
2022/04/07 06:54:54;;;;;;;;;;;;;;;5.42;100.00;96485.41;5091129;28;19928;-82
2022/04/07 06:57:19;;;;;;;;;;;;;;;5.46;100.00;96467.09;5056503;28;19932;-81
2022/04/07 06:59:45;;;;;;;;;;;;;;;5.45;100.00;96469.72;5083134;28;20325;-83
2022/04/07 07:02:11;;;;;;;;;;;;;;;5.47;100.00;96463.59;5075563;28;19967;-82
2022/04/07 07:04:39;;;;;;;;;;;;;;;5.53;100.00;96449.59;5075597;28;20015;-80
2022/04/07 07:07:06;;;;;;;;;;;;;;;5.60;100.00;96459.06;5075620;28;19923;-79
2022/04/07 07:09:32;;;;;;;;;;;;;;;5.66;100.00;96445.94;5093859;28;19927;-82
2022/04/07 07:11:58;;;;;;;;;;;;;;;5.72;100.00;96435.41;5076249;28;19920;-82
2022/04/07 07:14:26;;;;;;;;;;;;;;;5.75;100.00;96437.97;5075487;28;20330;-80
2022/04/07 07:16:51;;;;;;;;;;;;;;;5.84;100.00;96436.09;5093795;28;19923;-80
2022/04/07 07:19:18;;;;;;;;;;;;;;;5.93;100.00;96428.97;5093557;28;19936;-78
2022/04/07 07:21:43;;;;;;;;;;;;;;;6.01;100.00;96428.00;5096724;28;19920;-80
2022/04/07 07:24:17;;;;;;;;;;;;;;;6.02;100.00;96408.84;5095531;28;19919;-78
2022/04/07 07:26:42;;;;;;;;;;;;;;;6.08;100.00;96399.16;5096014;28;19916;-79
2022/04/07 07:29:07;;;;;;;;;;;;;;;6.07;100.00;96392.19;5094905;28;19915;-78
2022/04/07 07:31:35;;;;;;;;;;;;;;;6.14;100.00;96379.91;5095919;28;20052;-77
2022/04/07 07:34:03;;;;;;;;;;;;;;;6.12;100.00;96402.56;5082047;28;20022;-77
2022/04/07 07:36:28;;;;;;;;;;;;;;;6.26;100.00;96397.09;5096244;28;19928;-76
2022/04/07 07:38:54;;;;;;;;;;;;;;;6.38;100.00;96407.31;5064263;28;20598;-78
2022/04/07 07:41:19;;;;;;;;;;;;;;;6.49;100.00;96401.03;5062863;28;19966;-77
2022/04/07 07:43:46;;;;;;;;;;;;;;;6.56;100.00;96400.03;5055056;28;19917;-77
2022/04/07 07:46:11;;;;;;;;;;;;;;;6.58;100.00;96408.72;5054162;28;20417;-77
2022/04/07 07:48:37;;;;;;;;;;;;;;;6.92;100.00;96398.44;5054539;28;19924;-76
2022/04/07 07:51:02;;;;;;;;;;;;;;;7.36;100.00;96375.69;5077172;28;19939;-75
2022/04/07 07:53:27;;;;;;;;;;;;;;;7.59;100.00;96402.22;5058472;28;19924;-75
2022/04/07 07:55:54;;;;;;;;;;;;;;;7.54;100.00;96423.25;5071664;28;19920;-75
2022/04/07 07:58:20;;;;;;;;;;;;;;;7.53;100.00;96448.56;5066044;28;19920;-76
2022/04/07 08:00:45;;;;;;;;;;;;;;;7.88;100.00;96453.91;5070429;28;19924;-76
2022/04/07 08:03:11;;;;;;;;;;;;;;;8.15;100.00;96467.22;5071405;28;19955;-75
2022/04/07 08:05:37;;;;;;;;;;;;;;;8.03;100.00;96503.31;5074521;28;20412;-76
2022/04/07 08:08:02;;;;;;;;;;;;;;;8.90;100.00;96485.41;5077732;28;20011;-77
2022/04/07 08:10:27;;;;;;;;;;;;;;;9.62;100.00;96511.41;5059897;28;19928;-77
2022/04/07 08:12:53;;;;;;;;;;;;;;;10.46;100.00;96530.72;5060866;28;19931;-76
2022/04/07 08:15:19;;;;;;;;;;;;;;;9.90;100.00;96653.31;5083761;28;19954;-75
2022/04/07 08:17:44;;;;;;;;;;;;;;;9.75;100.00;96743.03;5078940;28;20317;-74
2022/04/07 08:20:10;;;;;;;;;;;;;;;10.25;100.00;96793.38;5095331;28;19916;-75
2022/04/07 08:22:35;;;;;;;;;;;;;;;9.61;100.00;96870.31;5057749;28;19928;-75
2022/04/07 08:25:02;;;;;;;;;;;;;;;9.49;100.00;96900.38;5062017;28;20070;-76
2022/04/07 08:27:27;;;;;;;;;;;;;;;9.82;100.00;96963.53;5057673;28;19917;-76
2022/04/07 08:29:53;;;;;;;;;;;;;;;9.65;100.00;97000.69;5079075;28;20306;-77
2022/04/07 08:32:18;;;;;;;;;;;;;;;10.11;100.00;97009.28;5074572;28;19924;-77
2022/04/07 08:34:44;;;;;;;;;;;;;;;9.76;100.00;97060.88;5071424;28;19920;-75
2022/04/07 08:37:09;;;;;;;;;;;;;;;9.58;100.00;97088.41;5081770;28;19923;-75
2022/04/07 08:39:34;;;;;;;;;;;;;;;9.36;100.00;97097.59;5091380;28;19920;-76
2022/04/07 08:42:04;;;;;;;;;;;;;;;9.47;100.00;97114.00;5115142;28;19922;-75
2022/04/07 08:44:44;;;;;;;;;;;;;;;9.49;100.00;97122.72;5108884;28;19924;-74
2022/04/07 08:47:11;;;;;;;;;;;;;;;9.31;100.00;97143.19;5093675;28;19924;-74
2022/04/07 08:49:37;;;;;;;;;;;;;;;9.34;100.00;97139.66;5076390;28;20010;-74
2022/04/07 08:52:03;;;;;;;;;;;;;;;9.15;100.00;97165.34;5075652;28;19923;-74
2022/04/07 08:54:30;;;;;;;;;;;;;;;9.48;100.00;97163.03;5076455;28;19924;-75
2022/04/07 08:56:55;;;;;;;;;;;;;;;9.75;100.00;97179.16;5074712;28;19916;-75
2022/04/07 08:59:20;;;;;;;;;;;;;;;9.99;100.00;97202.31;5093584;28;19919;-73
2022/04/07 09:01:46;;;;;;;;;;;;;;;10.61;100.00;97224.69;5076250;28;20363;-73
2022/04/07 09:04:12;;;;;;;;;;;;;;;10.94;100.00;97248.53;5058692;28;19916;-72
2022/04/07 09:06:38;;;;;;;;;;;;;;;10.51;100.00;97307.34;5067359;28;19920;-72
2022/04/07 09:09:14;;;;;;;;;;;;;;;10.27;100.00;97335.84;5055923;28;19938;-72
2022/04/07 09:11:39;;;;;;;;;;;;;;;9.67;100.00;97368.44;5056742;28;19920;-77
2022/04/07 09:14:05;;;;;;;;;;;;;;;9.58;100.00;97379.94;5070269;28;19926;-75
2022/04/07 09:16:30;;;;;;;;;;;;;;;10.04;100.00;97399.38;5059582;28;19959;-73
2022/04/07 09:18:55;;;;;;;;;;;;;;;10.45;100.00;97394.28;5060509;28;19924;-76
2022/04/07 09:21:27;;;;;;;;;;;;;;;10.15;100.00;97443.88;5096570;28;20389;-78
2022/04/07 09:23:53;;;;;;;;;;;;;;;10.56;100.00;97445.78;5096447;28;19916;-75
2022/04/07 09:26:18;;;;;;;;;;;;;;;10.49;100.00;97480.16;5097113;28;19923;-75
2022/04/07 09:28:44;;;;;;;;;;;;;;;10.34;100.00;97504.94;5114450;28;19915;-75
2022/04/07 09:31:13;;;;;;;;;;;;;;;10.23;100.00;97515.59;5097493;28;19920;-77
2022/04/07 09:33:39;;;;;;;;;;;;;;;10.14;100.00;97542.03;5096598;28;20007;-77
2022/04/07 09:36:07;;;;;;;;;;;;;;;10.25;100.00;97542.72;5066822;28;20035;-76
2022/04/07 09:38:34;;;;;;;;;;;;;;;10.15;100.00;97534.13;5060957;28;19927;-74
2022/04/07 09:41:03;;;;;;;;;;;;;;;10.06;100.00;97558.78;5075684;28;20370;-75
2022/04/07 09:43:28;;;;;;;;;;;;;;;9.99;100.00;97577.28;5083792;28;19973;-76
2022/04/07 09:45:54;;;;;;;;;;;;;;;9.91;100.00;97566.03;5075083;28;19920;-73
2022/04/07 09:48:20;;;;;;;;;;;;;;;9.91;100.00;97568.66;5074272;28;19974;-76
2022/04/07 09:51:03;;;;;;;;;;;;;;;9.73;100.00;97565.41;5093799;28;19936;-75
2022/04/07 09:53:39;;;;;;;;;;;;;;;9.78;100.00;97575.84;5075487;28;20401;-74
2022/04/07 09:56:05;;;;;;;;;;;;;;;9.64;100.00;97571.63;5071531;28;19941;-75
2022/04/07 09:58:33;;;;;;;;;;;;;;;9.52;100.00;97580.53;5093205;28;19943;-74
2022/04/07 10:01:02;;;;;;;;;;;;;;;9.36;100.00;97596.50;5093695;28;19916;-75
2022/04/07 10:03:30;;;;;;;;;;;;;;;9.19;100.00;97586.19;5074617;28;19961;-75
2022/04/07 10:05:56;;;;;;;;;;;;;;;9.21;100.00;97595.75;5092941;28;19916;-73
2022/04/07 10:08:22;;;;;;;;;;;;;;;9.12;100.00;97595.84;5074558;28;20379;-73
2022/04/07 10:10:48;;;;;;;;;;;;;;;9.28;100.00;97600.06;5074496;28;19916;-74
2022/04/07 10:13:14;;;;;;;;;;;;;;;9.40;100.00;97600.81;5074222;28;19923;-74
2022/04/07 10:15:40;;;;;;;;;;;;;;;9.47;100.00;97586.72;5074786;28;20014;-74
2022/04/07 10:18:10;;;;;;;;;;;;;;;9.50;100.00;97598.06;5073476;28;20053;-74
2022/04/07 10:20:40;;;;;;;;;;;;;;;9.52;100.00;97591.06;5074771;28;20003;-75
2022/04/07 10:23:12;;;;;;;;;;;;;;;9.58;100.00;97605.84;5073708;28;19916;-74
2022/04/07 10:25:39;;;;;;;;;;;;;;;9.73;100.00;97602.19;5082354;28;19972;-74
2022/04/07 10:28:05;;;;;;;;;;;;;;;9.60;100.00;97624.22;5091913;28;20013;-74
2022/04/07 10:30:32;;;;;;;;;;;;;;;9.61;100.00;97642.59;5089765;28;19993;-74
2022/04/07 10:32:58;;;;;;;;;;;;;;;9.72;100.00;97625.84;5094482;28;20356;-73
2022/04/07 10:35:29;;;;;;;;;;;;;;;9.79;100.00;97624.84;5088952;28;20014;-76
2022/04/07 10:37:57;;;;;;;;;;;;;;;9.95;100.00;97621.16;5078785;28;19922;-76
2022/04/07 10:40:34;;;;;;;;;;;;;;;10.37;100.00;97623.25;5092929;28;19916;-75
2022/04/07 10:43:06;;;;;;;;;;;;;;;10.41;100.00;97631.06;5091290;28;20383;-74
2022/04/07 10:45:31;;;;;;;;;;;;;;;10.31;100.00;97660.13;5092473;28;20015;-74
2022/04/07 10:48:16;;;;;;;;;;;;;;;10.40;100.00;97666.13;5091891;28;19920;-74
2022/04/07 10:50:49;;;;;;;;;;;;;;;10.57;100.00;97662.41;5091752;28;20016;-75
2022/04/07 10:53:21;;;;;;;;;;;;;;;10.77;100.00;97680.53;5092090;28;19916;-75
2022/04/07 10:55:53;;;;;;;;;;;;;;;10.89;100.00;97664.53;5092534;28;19920;-76
2022/04/07 10:58:19;;;;;;;;;;;;;;;10.76;100.00;97705.94;5092064;28;20394;-76
2022/04/07 11:00:44;;;;;;;;;;;;;;;10.70;100.00;97698.16;5090547;28;20375;-76
2022/04/07 11:03:14;;;;;;;;;;;;;;;10.61;100.00;97700.91;5091992;28;19999;-74
2022/04/07 11:05:59;;;;;;;;;;;;;;;10.64;100.00;97710.53;5090578;28;20011;-75
2022/04/07 11:08:25;;;;;;;;;;;;;;;11.01;100.00;97692.41;5091162;28;19916;-73
2022/04/07 11:10:52;;;;;;;;;;;;;;;10.68;100.00;97691.19;5091050;28;19927;-76
2022/04/07 11:13:19;;;;;;;;;;;;;;;10.62;100.00;97713.19;5090544;28;19912;-73
2022/04/07 11:15:51;;;;;;;;;;;;;;;10.71;100.00;97704.31;5090957;28;19916;-75
2022/04/07 11:18:22;;;;;;;;;;;;;;;10.62;100.00;97713.19;5091986;28;20060;-76
2022/04/07 11:21:01;;;;;;;;;;;;;;;10.73;100.00;97713.91;5090896;28;20032;-75
2022/04/07 11:23:43;;;;;;;;;;;;;;;10.72;100.00;97738.50;5091154;28;19923;-75
2022/04/07 11:26:12;;;;;;;;;;;;;;;10.66;100.00;97730.69;5091337;28;19934;-75
2022/04/07 11:28:37;;;;;;;;;;;;;;;10.72;100.00;97712.19;5090670;28;20316;-76
2022/04/07 11:31:04;;;;;;;;;;;;;;;10.92;100.00;97746.09;5075724;28;19962;-76
2022/04/07 11:33:35;;;;;;;;;;;;;;;11.01;100.00;97750.34;5094531;28;19938;-76
2022/04/07 11:36:01;;;;;;;;;;;;;;;10.99;100.00;97752.13;5076819;28;19927;-78
2022/04/07 11:38:26;;;;;;;;;;;;;;;11.19;100.00;97769.41;5093408;28;19915;-77
2022/04/07 11:41:02;;;;;;;;;;;;;;;11.06;100.00;97761.69;5093079;28;19922;-78
2022/04/07 11:43:28;;;;;;;;;;;;;;;11.51;100.00;97776.75;5111473;28;19976;-75
2022/04/07 11:45:54;;;;;;;;;;;;;;;11.02;100.00;97778.41;5093154;28;20446;-78
2022/04/07 11:48:23;;;;;;;;;;;;;;;10.97;100.00;97796.06;5110480;28;20402;-77
2022/04/07 11:50:52;;;;;;;;;;;;;;;11.16;100.00;97769.44;5075892;28;20498;-77
2022/04/07 11:53:18;;;;;;;;;;;;;;;11.09;100.00;97798.50;5077082;28;20268;-76
2022/04/07 11:55:44;;;;;;;;;;;;;;;11.18;100.00;97808.00;5109350;28;20010;-79
2022/04/07 11:58:10;;;;;;;;;;;;;;;11.25;100.00;97799.13;5093298;28;20358;-77
2022/04/07 12:00:35;;;;;;;;;;;;;;;11.46;100.00;97795.25;5093203;28;19916;-77
2022/04/07 12:03:01;;;;;;;;;;;;;;;10.97;100.00;97846.06;5111067;28;19915;-77
2022/04/07 12:05:27;;;;;;;;;;;;;;;10.99;100.00;97833.75;5111864;28;19920;-75
2022/04/07 12:07:54;;;;;;;;;;;;;;;11.04;100.00;97849.47;5093203;28;20264;-77
2022/04/07 12:10:20;;;;;;;;;;;;;;;10.93;100.00;97842.59;5111514;28;19922;-76
2022/04/07 12:12:45;;;;;;;;;;;;;;;11.11;100.00;97853.78;5093672;28;19916;-77
2022/04/07 12:15:11;;;;;;;;;;;;;;;11.39;100.00;97843.69;5110698;28;19916;-77
2022/04/07 12:17:36;;;;;;;;;;;;;;;11.41;100.00;97852.44;5092472;28;20348;-76
2022/04/07 12:20:02;;;;;;;;;;;;;;;11.40;100.00;97847.19;5092693;28;19930;-78
2022/04/07 12:22:29;;;;;;;;;;;;;;;11.46;100.00;97903.28;5076682;28;20394;-76
2022/04/07 12:25:05;;;;;;;;;;;;;;;11.49;100.00;97879.53;5092081;28;19923;-77
2022/04/07 12:27:31;;;;;;;;;;;;;;;11.63;100.00;97921.50;5093114;28;19916;-76
2022/04/07 12:29:58;;;;;;;;;;;;;;;11.84;100.00;97908.91;5110367;28;20084;-76
2022/04/07 12:32:23;;;;;;;;;;;;;;;12.01;100.00;97938.53;5092902;28;19926;-77
2022/04/07 12:34:55;;;;;;;;;;;;;;;11.63;100.00;97962.81;5092804;28;19916;-76
2022/04/07 12:37:36;;;;;;;;;;;;;;;11.49;100.00;97955.09;5090442;28;20291;-77
2022/04/07 12:40:01;;;;;;;;;;;;;;;11.37;100.00;97969.28;5081141;28;20299;-77
2022/04/07 12:42:27;;;;;;;;;;;;;;;11.29;100.00;98008.03;5090866;28;19916;-76
2022/04/07 12:45:05;;;;;;;;;;;;;;;11.05;100.00;98014.50;5072463;28;19927;-75
2022/04/07 12:47:30;;;;;;;;;;;;;;;11.15;100.00;98010.84;5074143;28;19920;-75